Pittsburgh International Airport
KPIT : rendu visible

Aérodrome :











RETROUVEZ-NOUS SUR...

 
LOGIN :

S'inscrire | Disclaimer

   EN    FR    IT 

 









Légende :    VFR   VFR Marginal   IFR   IFR Intensif   IFR Très Intensif
Visi : 
Plafond : 
>= 8 km
>= 3000ft
5 à 8 km
1000 à 3000 ft
1500m à 5 km
500 à 1000 ft
800 à 1500m
200 à 500 ft
< 800m
< 200 ft
Symboles :   Orages  Brouillard  Fortes neiges  Fortes précipitations  Vent > 20 kt






- Altitude de l'aérodrome : 1203 ft
- Code IATA : PIT


KPIT - Pittsburgh International

DERNIER METAR :
  • 231751Z 21016G20KT 10SM FEW070 BKN100 BKN250 10/M12 A3010 RMK AO2 SLP209 T01001122 10100 21033 58023

METARs EXPIRÉS :
  • 231651Z 22011KT 190V250 10SM BKN075 BKN250 08/M12 A3013 RMK AO2 SLP220 T00831122
  • 231551Z 22011KT 10SM FEW250 07/M11 A3016 RMK AO2 SLP228 T00721106

TAF KPIT
Valide du 23 à 18h jusqu'au 25 à 00h UTC


231720Z 2318/2424 22010G18KT P6SM BKN070
FM232300 20006KT P6SM BKN050
FM242000 20003KT P6SM OVC025
FM242300 00000KT P6SM VCSH OVC015



MET'MAP, la Météo Aéronautique d'un coup d'oeil ! - Copyright ORBIFLY Décembre 2007 - Disclaimer

ORBIFLY MET'MAP TEAM :

Programmation & Développement : Alexandra Zaïnal
Sur une idée originale de : Baudouin d'Aumeries
Assistance à la programmation : Marc-Olivier Méhu
Soutien technique & logistique : Manuel Goepfert

Contact : metmap@orbifly.com




SOURCES & CREDITS :

   NOAA       Earth
Advisory